Flight Track Log - Related Links

Times and Time Zones

All times are in EST time to prevent confusion due to time zone crossing. See the CES2279 flight status page for this flight to view local times or setup timezone preferences in your user account.

Time Position Orientation Groundspeed Altitude Reporting Facility
EST Latitude Longitude Course Direction KTS MPH feet Rate Location/Type
Sun 06:57:00 PM 34.9548 107.2496 293° West  Level Estimated
Sun 06:58:00 PM 34.9859 107.1552 292° West  Level Estimated
Sun 06:59:00 PM 35.0169 107.0606 292° West  Level Estimated
Sun 07:00:00 PM 35.0479 106.9660 292° West  Level Estimated
Sun 07:01:00 PM 35.0788 106.8713 292° West  Level Estimated
Sun 07:02:00 PM 35.1096 106.7765 292° West  Level Estimated
Sun 07:03:00 PM 35.1404 106.6817 292° West  Level Estimated
Sun 07:04:00 PM 35.1710 106.5868 292° West  Level Estimated
Sun 07:05:00 PM 35.2016 106.4918 292° West  Level Estimated
Sun 07:06:00 PM 35.2322 106.3967 291° West  Level Estimated
Sun 07:07:00 PM 35.2626 106.3016 291° West  Level Estimated
Sun 07:08:00 PM 35.2930 106.2064 291° West  Level Estimated
Sun 07:09:00 PM 35.3233 106.1111 291° West  Level Estimated
Sun 07:10:00 PM 35.3535 106.0158 291° West  Level Estimated
Sun 07:11:00 PM 35.3836 105.9204 291° West  Level Estimated
Sun 07:12:00 PM 35.4137 105.8249 291° West  Level Estimated
Sun 07:13:00 PM 35.4437 105.7293 291° West  Level Estimated
Sun 07:14:00 PM 35.4736 105.6337 291° West  Level Estimated
Sun 07:15:00 PM 35.5035 105.5380 291° West  Level Estimated
Sun 07:16:00 PM 35.5332 105.4422 291° West  Level Estimated
Sun 07:17:00 PM 35.5630 105.3464 291° West  Level Estimated
Sun 07:18:00 PM 35.5926 105.2505 291° West  Level Estimated
Sun 07:19:00 PM 35.6221 105.1545 291° West  Level Estimated
Sun 07:20:00 PM 35.6516 105.0585 291° West  Level Estimated
Sun 07:21:00 PM 35.6810 104.9623 291° West  Level Estimated
Sun 07:22:00 PM 35.7103 104.8661 291° West  Level Estimated
Sun 07:23:00 PM 35.7395 104.7699 291° West  Level Estimated
Sun 07:24:00 PM 35.7687 104.6736 290° West  Level Estimated
Sun 07:25:00 PM 35.7978 104.5771 290° West  Level Estimated
Sun 07:26:00 PM 35.8268 104.4807 290° West  Level Estimated
Sun 07:27:00 PM 35.8557 104.3841 290° West  Level Estimated
Sun 07:28:00 PM 35.8846 104.2875 290° West  Level Estimated
Sun 07:29:00 PM 35.9134 104.1908 290° West  Level Estimated
Sun 07:30:00 PM 35.9421 104.0940 290° West  Level Estimated
Sun 07:31:00 PM 35.9707 103.9972 290° West  Level Estimated
Sun 07:32:00 PM 35.9992 103.9003 290° West  Level Estimated
Sun 07:33:00 PM 36.0277 103.8033 290° West  Level Estimated
Sun 07:34:00 PM 36.0561 103.7063 290° West  Level Estimated
Sun 07:35:00 PM 36.0844 103.6092 290° West  Level Estimated
Sun 07:36:00 PM 36.1126 103.5120 290° West  Level Estimated
Sun 07:37:00 PM 36.1408 103.4148 290° West  Level Estimated
Sun 07:38:00 PM 36.1689 103.3174 290° West  Level Estimated
Sun 07:39:00 PM 36.1969 103.2200 290° West  Level Estimated
Sun 07:40:00 PM 36.2248 103.1226 290° West  Level Estimated
Sun 07:41:00 PM 36.2526 103.0251 290° West  Level Estimated
Sun 07:42:00 PM 36.2804 102.9275 289° West  Level Estimated
Sun 07:43:00 PM 36.3081 102.8298 289° West  Level Estimated
Sun 07:44:00 PM 36.3357 102.7321 289° West  Level Estimated
Sun 07:45:00 PM 36.3632 102.6343 289° West  Level Estimated
Sun 07:46:00 PM 36.3906 102.5364 289° West  Level Estimated
Sun 07:47:00 PM 36.4180 102.4385 289° West  Level Estimated
Sun 07:48:00 PM 36.4453 102.3404 289° West  Level Estimated
Sun 07:49:00 PM 36.4725 102.2424 289° West  Level Estimated
Sun 07:50:00 PM 36.4996 102.1442 289° West  Level Estimated
Sun 07:51:00 PM 36.5266 102.0460 289° West  Level Estimated
Sun 07:52:00 PM 36.5275 102.0428 289° West  Level Estimated
Sun 07:53:00 PM 36.5275 102.0428 270° West  Level Estimated
Sun 07:54:00 PM 36.5275 102.0428 270° West  Level Estimated
Sun 07:55:00 PM 36.5275 102.0428 270° West  Level Estimated
Sun 07:56:00 PM 36.5275 102.0428 270° West  Level Estimated
Sun 07:57:00 PM 36.5275 102.0428 270° West  Level Estimated
Sun 07:58:00 PM 36.5275 102.0428 270° West  Level Estimated
Sun 07:59:00 PM 36.5275 102.0428 270° West  Level Estimated
Sun 08:00:00 PM 36.5275 102.0428 270° West  Level Estimated
Sun 08:01:00 PM 36.5275 102.0428 270° West  Level Estimated
Sun 08:02:00 PM 36.5275 102.0428 270° West  Level Estimated
Sun 08:03:00 PM 36.5275 102.0428 270° West  Level Estimated
Sun 08:04:00 PM 36.5275 102.0428 270° West  Level Estimated
Sun 08:05:00 PM 36.5275 102.0428 270° West  Level Estimated
Sun 08:06:00 PM 36.5275 102.0428 270° West  Level Estimated
Sun 08:07:00 PM 36.5275 102.0428 270° West  Level Estimated

Login

Don't have an account? Register now (free) for customized features, flight alerts, and more!